Startpagina
METAR-TAF:

METAR-TAF

Vliegvelden :

Curaçao International Airport

Curaçao, Nederlandse Antillen

breedte: 12-12N, lengte: 068-58W, hoogte: 9 m

Actueel weer

Dit bericht is 46 minuten geleden gemaakt, om 19:00 UTC
Wind 16 kt uit het oostzuidoosten
Temperatuur 30°C
Vochtigheid 62%
Druk 1013 hPa
Zicht 10 km of meer

METAR: TNCC 231900Z AUTO 11016KT 9999 NCD 30/22 Q1013 NOSIG

Tijdstip: 15:46 (19:46 UTC)

Verwachting

Dit bericht is 3 uur en het 46 minuten geleden gemaakt, om 16:00 UTC
Verwachting geldig van 23 om 18 UTC tot 24 om 18 UTC
Wind 15 kt uit het oostzuidoosten met uitschieters tot 27 kt
Zicht 10 km of meer
Verspreide wolken op 2000 ft
Kans 30% :
Tijdelijke
van 24 om 06 UTC tot 24 om 16 UTC
Zicht: 7000 m
Gebroken wolken op 1500 ft
lichte regenbuien

TAF: TNCC 231600Z 2318/2418 11015G27KT 9999 SCT020 PROB30 TEMPO 2406/2416 7000 -SHRA BKN015

Waarnemingen en weersverwachtingen van meer dan 4000 vliegvelden (METAR en TAF).

De beschikbare stations zijn de gele en rode punten op de kaart.

Ga met uw muis naar het station om de naam te zien.

Klik dan om waarnemingen en weersverwachtingen te zien.

kaart wijzigen: klik op de groene knoppen met een zwart kruis om in te zoomen, op de groene knop met een streepje om uit te zoomen of op de groene pijlen voor aangrenzende kaarten.


METAR-TAF: